Terminal Aerodrome Forecast
Issued by NWS

Home | Current Version | Previous Version | Text Only | Print | Product List | Glossary On
Versions: 1 2 3 4 5 6 7 8 9 10 11 12 13 14 15 16 17 18 19 20 21 22 23 24
089
FTUS43 KAPX 290531
TAFMBL
TAF
KMBL 290531Z 2906/3006 18005KT P6SM VCSH BKN050 BKN150
      WS015/19035KT
     FM290800 VRB03KT P6SM BKN150 WS015/19035KT
     FM291100 18005KT P6SM BKN120
     FM291600 21011KT P6SM SCT060
     FM291800 22015G23KT P6SM VCSH SCT060
     FM291900 22015G23KT P6SM VCSH BKN060
     FM300300 24005KT P6SM BKN140
      AMD LTD TO CLD VIS AND WIND=

USA.gov is the U.S. government's official web portal to all federal, state and local government web resources and services.